Time;durP1;ratioP1;P1;durP2;ratioP2;P2;SDS_P1;SDS_P2;PMS_P1;PMS_P2;Temp;Humidity;BMP_temperature;BMP_pressure;BME280_temperature;BME280_humidity;BME280_pressure;Samples;Min_cycle;Max_cycle;Signal;HPM_P1;HPM_P2
2023/04/22 00:00:45;;;;;;;1.00;1.00;;;18.10;64.10;;;;;;5066302;28;43480;-70
2023/04/22 00:03:13;;;;;;;1.00;1.00;;;18.10;64.40;;;;;;5062433;28;44231;-69
2023/04/22 00:05:44;;;;;;;1.00;1.00;;;18.10;64.50;;;;;;5066267;28;43938;-69
2023/04/22 00:08:12;;;;;;;1.00;1.00;;;18.10;64.40;;;;;;5064177;28;45265;-69
2023/04/22 00:10:42;;;;;;;1.10;1.10;;;18.10;64.40;;;;;;5066168;28;43394;-70
2023/04/22 00:13:12;;;;;;;0.93;0.93;;;18.10;64.40;;;;;;5064944;28;43567;-70
2023/04/22 00:15:40;;;;;;;1.20;1.20;;;18.00;64.40;;;;;;5064459;28;43941;-70
2023/04/22 00:18:12;;;;;;;1.00;1.00;;;18.00;64.60;;;;;;5064182;28;43615;-69
2023/04/22 00:20:41;;;;;;;1.10;1.10;;;18.10;64.70;;;;;;5066380;28;43450;-69
2023/04/22 00:23:09;;;;;;;1.10;1.10;;;18.20;64.50;;;;;;5066618;28;43992;-69
2023/04/22 00:25:37;;;;;;;1.03;1.03;;;18.20;64.20;;;;;;5064119;28;46360;-70
2023/04/22 00:28:06;;;;;;;1.00;1.00;;;18.30;64.10;;;;;;5063538;28;43494;-69
2023/04/22 00:30:35;;;;;;;0.93;0.93;;;18.30;63.90;;;;;;5063280;28;43433;-70
2023/04/22 00:33:03;;;;;;;1.10;1.10;;;18.20;64.20;;;;;;5062986;28;43474;-70
2023/04/22 00:35:31;;;;;;;1.13;1.13;;;18.20;64.20;;;;;;5057932;28;46069;-71
2023/04/22 00:37:59;;;;;;;0.97;0.97;;;18.20;64.00;;;;;;5058188;28;44726;-70
2023/04/22 00:40:27;;;;;;;1.03;1.03;;;18.20;64.10;;;;;;5053922;28;43479;-69
2023/04/22 00:42:54;;;;;;;1.10;1.10;;;18.10;64.10;;;;;;5066465;28;43424;-69
2023/04/22 00:45:24;;;;;;;0.90;0.90;;;18.10;64.30;;;;;;5065696;28;43918;-69
2023/04/22 00:47:52;;;;;;;1.10;1.10;;;18.10;64.60;;;;;;5065834;28;44114;-69
2023/04/22 00:50:20;;;;;;;1.07;1.07;;;18.10;64.50;;;;;;5065880;28;43397;-69
2023/04/22 00:52:48;;;;;;;1.13;1.13;;;18.10;64.40;;;;;;5071986;28;43545;-68
2023/04/22 00:55:18;;;;;;;1.00;1.00;;;18.10;64.40;;;;;;5064009;28;45722;-69
2023/04/22 00:57:46;;;;;;;1.00;1.00;;;18.10;64.50;;;;;;5063761;28;43526;-70
2023/04/22 01:00:14;;;;;;;0.93;0.93;;;18.00;64.50;;;;;;5062783;28;43957;-69
2023/04/22 01:02:46;;;;;;;1.20;1.07;;;18.00;64.70;;;;;;5061748;28;43551;-69
2023/04/22 01:05:15;;;;;;;1.00;1.00;;;18.00;64.50;;;;;;5065627;28;43926;-70
2023/04/22 01:07:43;;;;;;;1.00;1.00;;;18.00;64.40;;;;;;5060397;28;43458;-69
2023/04/22 01:10:11;;;;;;;1.00;1.00;;;18.10;64.50;;;;;;5063758;28;43957;-70
2023/04/22 01:12:39;;;;;;;1.20;1.20;;;18.00;64.50;;;;;;5065931;28;43505;-69
2023/04/22 01:15:08;;;;;;;1.00;1.00;;;18.00;64.60;;;;;;5065220;28;45275;-70
2023/04/22 01:17:39;;;;;;;0.90;0.90;;;18.00;64.80;;;;;;5063392;28;44038;-70
2023/04/22 01:20:10;;;;;;;1.50;1.00;;;18.10;64.60;;;;;;5066600;28;43497;-69
2023/04/22 01:22:44;;;;;;;1.00;1.00;;;18.20;64.40;;;;;;5065890;28;43448;-70
2023/04/22 01:25:13;;;;;;;1.00;1.00;;;18.30;64.00;;;;;;5065313;28;44342;-70
2023/04/22 01:27:41;;;;;;;0.80;0.80;;;18.30;63.80;;;;;;5065214;28;43440;-69
2023/04/22 01:30:10;;;;;;;1.20;1.20;;;18.30;63.80;;;;;;5063472;28;43455;-69
2023/04/22 01:32:39;;;;;;;1.00;1.00;;;18.30;64.00;;;;;;5065621;28;43601;-69
2023/04/22 01:35:08;;;;;;;0.90;0.90;;;18.30;64.00;;;;;;5065052;28;43843;-70
2023/04/22 01:37:36;;;;;;;1.00;1.00;;;18.30;64.00;;;;;;5064879;28;43377;-70
2023/04/22 01:40:04;;;;;;;1.20;1.20;;;18.20;63.90;;;;;;5067600;28;43597;-69
2023/04/22 01:42:33;;;;;;;1.00;1.00;;;18.20;64.00;;;;;;5067686;28;43946;-69
2023/04/22 01:45:01;;;;;;;1.03;1.03;;;18.20;64.20;;;;;;5064235;28;43891;-69
2023/04/22 01:47:31;;;;;;;1.10;1.10;;;18.10;64.40;;;;;;5062140;28;43460;-69
2023/04/22 01:49:59;;;;;;;1.00;1.00;;;18.10;64.40;;;;;;5069357;28;43422;-70
2023/04/22 01:52:27;;;;;;;1.10;1.10;;;18.10;64.30;;;;;;5066803;28;43562;-69
2023/04/22 01:54:55;;;;;;;1.00;1.00;;;18.10;64.30;;;;;;5066776;28;46945;-70
2023/04/22 01:57:23;;;;;;;1.00;1.00;;;18.10;64.40;;;;;;5066847;28;43660;-70
2023/04/22 01:59:52;;;;;;;1.07;1.07;;;18.10;64.50;;;;;;5066938;28;43403;-70
2023/04/22 02:02:22;;;;;;;1.10;1.10;;;18.10;64.60;;;;;;5066420;28;43467;-70
2023/04/22 02:04:50;;;;;;;0.90;0.90;;;18.10;64.50;;;;;;5066654;28;45690;-70
2023/04/22 02:07:18;;;;;;;1.00;1.00;;;18.10;64.50;;;;;;5056831;28;44889;-70
2023/04/22 02:09:46;;;;;;;1.10;1.10;;;18.10;64.40;;;;;;5066626;28;43419;-70
2023/04/22 02:12:17;;;;;;;1.17;1.17;;;18.10;64.50;;;;;;5066975;28;43510;-69
2023/04/22 02:14:46;;;;;;;1.07;1.07;;;18.10;64.60;;;;;;5060349;28;45816;-69
2023/04/22 02:17:16;;;;;;;1.00;1.00;;;18.10;64.70;;;;;;5068932;28;43402;-69
2023/04/22 02:19:46;;;;;;;1.00;1.00;;;18.20;64.50;;;;;;5063844;28;43445;-69
2023/04/22 02:22:14;;;;;;;0.90;0.90;;;18.30;64.30;;;;;;5068670;28;43363;-69
2023/04/22 02:24:41;;;;;;;1.00;1.00;;;18.30;63.90;;;;;;5067986;28;43921;-70
2023/04/22 02:27:09;;;;;;;1.17;1.17;;;18.40;63.80;;;;;;5067374;28;44119;-69
2023/04/22 02:29:38;;;;;;;1.07;1.07;;;18.30;63.80;;;;;;5064960;28;43489;-69
2023/04/22 02:32:07;;;;;;;1.00;1.00;;;18.30;64.00;;;;;;5066870;28;43651;-68
2023/04/22 02:34:39;;;;;;;1.20;1.20;;;18.30;63.90;;;;;;5067906;28;45116;-69
2023/04/22 02:37:07;;;;;;;1.20;1.20;;;18.30;63.80;;;;;;5067437;28;43447;-69
2023/04/22 02:39:35;;;;;;;1.10;1.10;;;18.30;63.90;;;;;;5066019;28;44110;-69
2023/04/22 02:42:04;;;;;;;1.10;1.10;;;18.20;64.00;;;;;;5066330;28;43415;-70
2023/04/22 02:44:32;;;;;;;1.13;1.13;;;18.20;64.10;;;;;;5061341;28;44974;-71
2023/04/22 02:47:00;;;;;;;1.10;1.10;;;18.20;64.40;;;;;;5066184;28;45145;-70
2023/04/22 02:49:28;;;;;;;1.00;1.00;;;18.20;64.40;;;;;;5066001;28;43517;-70
2023/04/22 02:51:58;;;;;;;0.90;0.90;;;18.20;64.30;;;;;;5065579;28;43608;-70
2023/04/22 02:54:26;;;;;;;1.00;1.00;;;18.20;64.30;;;;;;5066179;28;45038;-70
2023/04/22 02:56:54;;;;;;;0.90;0.90;;;18.10;64.40;;;;;;5067274;28;43363;-70
2023/04/22 02:59:22;;;;;;;1.00;1.00;;;18.10;64.50;;;;;;5065934;28;43316;-70
2023/04/22 03:01:50;;;;;;;0.97;0.97;;;18.10;64.60;;;;;;5066117;28;43496;-70
2023/04/22 03:04:33;;;;;;;0.70;0.70;;;18.10;64.40;;;;;;5058876;28;45067;-70
2023/04/22 03:07:02;;;;;;;0.93;0.93;;;18.10;64.40;;;;;;5064157;28;43379;-71
2023/04/22 03:09:31;;;;;;;1.00;1.00;;;18.10;64.50;;;;;;5052509;28;43408;-71
2023/04/22 03:11:58;;;;;;;1.10;1.10;;;18.10;64.50;;;;;;5071895;28;43490;-70
2023/04/22 03:14:26;;;;;;;0.97;0.97;;;18.10;64.70;;;;;;5065700;28;46194;-70
2023/04/22 03:16:55;;;;;;;1.00;1.00;;;18.10;64.60;;;;;;5049973;28;44601;-69
2023/04/22 03:19:23;;;;;;;1.00;1.00;;;18.20;64.50;;;;;;5064105;28;44092;-68
2023/04/22 03:21:51;;;;;;;1.10;1.10;;;18.30;64.20;;;;;;5066056;28;43538;-69
2023/04/22 03:24:25;;;;;;;1.10;1.10;;;18.30;63.90;;;;;;5049945;28;44761;-69
2023/04/22 03:26:53;;;;;;;1.00;1.00;;;18.30;63.70;;;;;;5065140;28;43482;-70
2023/04/22 03:29:21;;;;;;;1.00;1.00;;;18.30;63.90;;;;;;5065541;28;43419;-70
2023/04/22 03:31:49;;;;;;;1.00;1.00;;;18.30;64.00;;;;;;5065484;28;43585;-70
2023/04/22 03:34:18;;;;;;;1.00;1.00;;;18.30;64.00;;;;;;5065326;28;45036;-69
2023/04/22 03:36:46;;;;;;;0.90;0.90;;;18.30;63.80;;;;;;5049059;28;44979;-70
2023/04/22 03:39:14;;;;;;;0.83;0.83;;;18.20;63.80;;;;;;5065479;28;43505;-69
2023/04/22 03:41:45;;;;;;;0.97;0.97;;;18.20;64.00;;;;;;5073113;28;43487;-70
2023/04/22 03:44:13;;;;;;;1.03;1.03;;;18.20;64.30;;;;;;5064766;28;44975;-69
2023/04/22 03:46:42;;;;;;;1.00;1.00;;;18.20;64.50;;;;;;5065070;28;44724;-69
2023/04/22 03:49:19;;;;;;;0.90;0.90;;;18.20;64.30;;;;;;5059555;28;43350;-69
2023/04/22 03:51:47;;;;;;;0.90;0.90;;;18.20;64.30;;;;;;5065548;28;43422;-69
2023/04/22 03:54:20;;;;;;;1.20;1.20;;;18.20;64.40;;;;;;5060009;28;45695;-70
2023/04/22 03:56:52;;;;;;;1.00;1.00;;;18.10;64.40;;;;;;5066322;28;43464;-69
2023/04/22 03:59:22;;;;;;;1.00;1.00;;;18.10;64.60;;;;;;5064757;28;43383;-70
2023/04/22 04:01:51;;;;;;;1.10;1.10;;;18.10;64.70;;;;;;5062519;28;43519;-70
2023/04/22 04:04:22;;;;;;;0.90;0.90;;;18.20;64.50;;;;;;5065368;28;44059;-69
2023/04/22 04:06:55;;;;;;;0.90;0.90;;;18.30;64.10;;;;;;5064860;28;43353;-69
2023/04/22 04:09:23;;;;;;;1.10;1.10;;;18.30;63.80;;;;;;5066051;28;43445;-70
2023/04/22 04:11:53;;;;;;;0.83;0.83;;;18.30;63.70;;;;;;5062951;28;43467;-69
2023/04/22 04:14:22;;;;;;;0.90;0.90;;;18.30;64.10;;;;;;5064747;28;45841;-68
2023/04/22 04:16:51;;;;;;;0.90;0.90;;;18.30;64.00;;;;;;5064497;28;44790;-70
2023/04/22 04:19:28;;;;;;;1.00;1.00;;;18.30;64.00;;;;;;5061960;28;43509;-69
2023/04/22 04:21:56;;;;;;;0.97;0.97;;;18.30;64.00;;;;;;5056302;28;43589;-70
2023/04/22 04:24:27;;;;;;;0.97;0.97;;;18.20;64.10;;;;;;5064395;28;44994;-69
2023/04/22 04:27:03;;;;;;;0.87;0.87;;;18.20;64.30;;;;;;5061508;28;43952;-71
2023/04/22 04:29:38;;;;;;;1.00;1.00;;;18.20;64.50;;;;;;5063870;28;43364;-70
2023/04/22 04:32:13;;;;;;;1.10;1.10;;;18.20;64.40;;;;;;5064298;28;43538;-69
2023/04/22 04:34:42;;;;;;;0.90;0.90;;;18.20;64.40;;;;;;5064631;28;43911;-69
2023/04/22 04:37:12;;;;;;;0.90;0.90;;;18.20;64.50;;;;;;5066198;28;43493;-69
2023/04/22 04:39:58;;;;;;;0.90;0.90;;;18.10;64.50;;;;;;5049192;28;44018;-69
2023/04/22 04:42:37;;;;;;;1.00;1.00;;;18.10;64.60;;;;;;5064668;28;44296;-71
2023/04/22 04:45:10;;;;;;;0.97;0.97;;;18.10;64.50;;;;;;5060135;28;44867;-69
2023/04/22 04:47:39;;;;;;;0.93;0.93;;;18.10;64.50;;;;;;5064332;28;44987;-69
2023/04/22 04:50:18;;;;;;;1.00;1.00;;;18.20;64.50;;;;;;5062276;28;43445;-68
2023/04/22 04:52:47;;;;;;;1.00;1.00;;;18.10;64.50;;;;;;5062791;28;43436;-69
2023/04/22 04:55:17;;;;;;;0.90;0.90;;;18.10;64.60;;;;;;5061161;28;44021;-69
2023/04/22 04:57:47;;;;;;;0.90;0.90;;;18.10;64.70;;;;;;5061894;28;43418;-70
2023/04/22 05:00:15;;;;;;;1.17;1.17;;;18.20;64.70;;;;;;5064293;28;43373;-70
2023/04/22 05:02:44;;;;;;;0.80;0.80;;;18.20;64.30;;;;;;5064051;28;43585;-69
2023/04/22 05:05:12;;;;;;;0.90;0.90;;;18.30;64.10;;;;;;5064140;28;45662;-69
2023/04/22 05:07:42;;;;;;;1.00;1.00;;;18.30;63.80;;;;;;5062843;28;43491;-69
2023/04/22 05:10:12;;;;;;;1.00;1.00;;;18.30;63.90;;;;;;5064253;28;43912;-70
2023/04/22 05:12:40;;;;;;;0.93;0.93;;;18.30;64.10;;;;;;5066275;28;43486;-69
2023/04/22 05:15:13;;;;;;;0.90;0.90;;;18.30;64.10;;;;;;5066471;28;44020;-70
2023/04/22 05:17:41;;;;;;;1.00;1.00;;;18.30;63.90;;;;;;5067259;28;43932;-69
2023/04/22 05:20:10;;;;;;;1.13;1.13;;;18.30;64.00;;;;;;5065582;28;43559;-69
2023/04/22 05:22:42;;;;;;;0.90;0.90;;;18.30;64.10;;;;;;5068145;28;44320;-70
2023/04/22 05:25:13;;;;;;;1.10;1.10;;;18.20;64.10;;;;;;5067413;28;45928;-70
2023/04/22 05:27:53;;;;;;;1.00;1.00;;;18.20;64.40;;;;;;5064190;28;43777;-70
2023/04/22 05:30:25;;;;;;;1.10;1.10;;;18.20;64.30;;;;;;5062299;28;43858;-70
2023/04/22 05:32:53;;;;;;;0.90;0.90;;;18.20;64.20;;;;;;5067798;28;43427;-70
2023/04/22 05:35:22;;;;;;;0.80;0.80;;;18.20;64.20;;;;;;5063297;28;43794;-70
2023/04/22 05:37:50;;;;;;;1.00;1.00;;;18.20;64.40;;;;;;5066126;28;44802;-70
2023/04/22 05:40:18;;;;;;;0.93;0.93;;;18.10;64.40;;;;;;5051983;28;43656;-70
2023/04/22 05:42:46;;;;;;;1.10;1.10;;;18.10;64.50;;;;;;5051294;28;43422;-70
2023/04/22 05:45:15;;;;;;;1.00;1.00;;;18.20;64.40;;;;;;5062386;28;45228;-69
2023/04/22 05:47:44;;;;;;;1.00;1.00;;;18.30;64.10;;;;;;5055001;28;45078;-69
2023/04/22 05:50:13;;;;;;;1.13;1.13;;;18.40;63.90;;;;;;5059528;28;43408;-70
2023/04/22 05:52:49;;;;;;;1.00;1.00;;;18.40;63.70;;;;;;5055569;28;43365;-69
2023/04/22 05:55:18;;;;;;;1.00;1.00;;;18.40;63.90;;;;;;5055525;28;45819;-70
2023/04/22 05:57:46;;;;;;;0.97;0.97;;;18.40;64.00;;;;;;5051718;28;43435;-69
2023/04/22 06:00:43;;;;;;;1.00;1.00;;;18.40;63.90;;;;;;5063134;28;44040;-70
2023/04/22 06:03:38;;;;;;;0.80;0.80;;;18.30;63.70;;;;;;5057173;28;43466;-69
2023/04/22 06:06:06;;;;;;;0.90;0.90;;;18.30;64.00;;;;;;5052509;28;44531;-69
2023/04/22 06:08:34;;;;;;;0.90;0.90;;;18.20;64.10;;;;;;5056331;28;43541;-70
2023/04/22 06:11:02;;;;;;;0.93;0.93;;;18.20;64.40;;;;;;5052178;28;43737;-69
2023/04/22 06:13:33;;;;;;;1.00;1.00;;;18.20;64.30;;;;;;5059200;28;43530;-70
2023/04/22 06:16:01;;;;;;;1.10;1.10;;;18.20;64.20;;;;;;5056675;28;43935;-70
2023/04/22 06:18:31;;;;;;;0.90;0.90;;;18.20;64.20;;;;;;5058320;28;45909;-70
2023/04/22 06:21:01;;;;;;;1.00;1.00;;;18.10;64.30;;;;;;5055956;28;43420;-69
2023/04/22 06:23:28;;;;;;;1.00;1.00;;;18.10;64.50;;;;;;5054334;28;43419;-69
2023/04/22 06:25:57;;;;;;;0.87;0.87;;;18.10;64.50;;;;;;5047565;28;45770;-69
2023/04/22 06:28:25;;;;;;;1.00;1.00;;;18.10;64.30;;;;;;5051755;28;43479;-70
2023/04/22 06:30:56;;;;;;;1.00;1.00;;;18.20;64.50;;;;;;5062226;28;43438;-69
2023/04/22 06:33:24;;;;;;;1.00;1.00;;;18.10;64.30;;;;;;5049507;28;44167;-70
2023/04/22 06:35:52;;;;;;;0.90;0.90;;;18.10;64.50;;;;;;5066297;28;45622;-69
2023/04/22 06:38:23;;;;;;;1.10;1.10;;;18.10;64.60;;;;;;5053391;28;43933;-69
2023/04/22 06:41:10;;;;;;;0.90;0.90;;;18.10;64.60;;;;;;5057224;28;43514;-70
2023/04/22 06:43:43;;;;;;;1.00;1.00;;;18.30;64.50;;;;;;5052447;28;43451;-69
2023/04/22 06:46:29;;;;;;;1.00;1.00;;;18.30;64.00;;;;;;5052974;28;43536;-70
2023/04/22 06:49:15;;;;;;;0.90;0.90;;;18.40;63.90;;;;;;5055230;28;43404;-70
2023/04/22 06:52:06;;;;;;;1.07;1.07;;;18.30;63.70;;;;;;5054758;28;43486;-70
2023/04/22 06:54:37;;;;;;;0.90;0.90;;;18.30;64.00;;;;;;5059535;28;43494;-69
2023/04/22 06:57:06;;;;;;;0.90;0.90;;;18.30;64.00;;;;;;5050715;28;45887;-70
2023/04/22 06:59:34;;;;;;;0.90;0.90;;;18.30;63.90;;;;;;5055877;28;43495;-70
2023/04/22 07:02:02;;;;;;;0.80;0.80;;;18.30;64.00;;;;;;5054193;28;43489;-70
2023/04/22 07:04:34;;;;;;;0.90;0.90;;;18.20;64.00;;;;;;5055523;28;43678;-70
2023/04/22 07:07:03;;;;;;;1.03;1.03;;;18.20;64.40;;;;;;5051262;28;44192;-70
2023/04/22 07:09:32;;;;;;;0.90;0.90;;;18.20;64.50;;;;;;5057346;28;44712;-70
2023/04/22 07:12:02;;;;;;;0.90;0.90;;;18.20;64.40;;;;;;5057051;28;44052;-71
2023/04/22 07:14:31;;;;;;;0.87;0.87;;;18.20;64.30;;;;;;5055401;28;43356;-71
2023/04/22 07:16:59;;;;;;;0.90;0.90;;;18.10;64.30;;;;;;5053608;28;46171;-70
2023/04/22 07:19:27;;;;;;;0.93;0.93;;;18.10;64.50;;;;;;5053340;28;43502;-69
2023/04/22 07:21:54;;;;;;;0.93;0.93;;;18.10;64.60;;;;;;5049835;28;44122;-70
2023/04/22 07:24:22;;;;;;;1.00;1.00;;;18.10;64.60;;;;;;5056342;28;43407;-69
2023/04/22 07:26:50;;;;;;;0.90;0.90;;;18.20;64.50;;;;;;5057691;28;43762;-70
2023/04/22 07:29:20;;;;;;;1.00;1.00;;;18.30;64.30;;;;;;5065151;28;43591;-70
2023/04/22 07:31:47;;;;;;;0.80;0.80;;;18.30;64.10;;;;;;5055850;28;44123;-69
2023/04/22 07:34:16;;;;;;;0.90;0.90;;;18.30;64.10;;;;;;5059956;28;43554;-69
2023/04/22 07:36:44;;;;;;;1.03;1.03;;;18.20;64.20;;;;;;5056196;28;43609;-69
2023/04/22 07:39:12;;;;;;;0.90;0.90;;;18.20;64.30;;;;;;5054068;28;44933;-69
2023/04/22 07:41:42;;;;;;;0.87;0.87;;;18.20;64.30;;;;;;5059976;28;43476;-69
2023/04/22 07:44:15;;;;;;;1.00;1.00;;;18.20;64.20;;;;;;5051474;28;43346;-69
2023/04/22 07:46:44;;;;;;;1.10;1.10;;;18.20;64.30;;;;;;5055980;28;44450;-71
2023/04/22 07:49:16;;;;;;;0.90;0.90;;;18.20;64.50;;;;;;5061744;28;43455;-70
2023/04/22 07:51:44;;;;;;;0.73;0.73;;;18.10;64.50;;;;;;5053212;28;43383;-71
2023/04/22 07:54:12;;;;;;;0.90;0.90;;;18.10;64.50;;;;;;5057696;28;43792;-70
2023/04/22 07:56:40;;;;;;;1.00;1.00;;;18.20;64.40;;;;;;5060315;28;46080;-69
2023/04/22 07:59:08;;;;;;;0.90;0.90;;;18.30;64.20;;;;;;5053361;28;43482;-68
2023/04/22 08:01:36;;;;;;;0.80;0.80;;;18.30;64.00;;;;;;5061784;28;43334;-69
2023/04/22 08:04:06;;;;;;;0.90;0.90;;;18.30;64.00;;;;;;5052942;28;43518;-69
2023/04/22 08:06:35;;;;;;;0.90;0.90;;;18.20;64.10;;;;;;5061678;28;44877;-69
2023/04/22 08:09:02;;;;;;;1.00;1.00;;;18.20;64.10;;;;;;5056027;28;43408;-69
2023/04/22 08:11:30;;;;;;;0.83;0.83;;;18.20;64.10;;;;;;5059371;28;43520;-71
2023/04/22 08:13:58;;;;;;;0.90;0.90;;;18.20;64.10;;;;;;5053623;28;43435;-70
2023/04/22 08:16:29;;;;;;;0.70;0.70;;;18.20;64.20;;;;;;5057732;28;43744;-71
2023/04/22 08:18:57;;;;;;;1.00;1.00;;;18.20;64.30;;;;;;5049363;28;43447;-70
2023/04/22 08:21:27;;;;;;;1.00;1.00;;;18.20;64.50;;;;;;5055352;28;43396;-70
2023/04/22 08:23:55;;;;;;;0.87;0.87;;;18.20;64.50;;;;;;5057161;28;43498;-70
2023/04/22 08:26:23;;;;;;;0.90;0.90;;;18.10;64.30;;;;;;5048560;28;43919;-69
2023/04/22 08:28:51;;;;;;;0.90;0.90;;;18.10;64.40;;;;;;5056039;28;43807;-69
2023/04/22 08:31:19;;;;;;;0.90;0.90;;;18.10;64.40;;;;;;5048121;28;43431;-70
2023/04/22 08:33:47;;;;;;;1.00;1.00;;;18.10;64.50;;;;;;5057935;28;43375;-70
2023/04/22 08:36:15;;;;;;;0.93;0.93;;;18.10;64.70;;;;;;5051252;28;43855;-70
2023/04/22 08:38:44;;;;;;;1.00;1.00;;;18.20;64.60;;;;;;5062187;28;44571;-70
2023/04/22 08:41:14;;;;;;;0.90;0.90;;;18.20;64.30;;;;;;5058384;28;43481;-70
2023/04/22 08:43:42;;;;;;;0.80;0.80;;;18.30;64.10;;;;;;5052351;28;43404;-70
2023/04/22 08:46:09;;;;;;;0.90;0.90;;;18.30;64.00;;;;;;5054185;28;45425;-70
2023/04/22 08:48:37;;;;;;;0.90;0.90;;;18.30;64.00;;;;;;5048165;28;43428;-70
2023/04/22 08:51:05;;;;;;;1.00;1.00;;;18.20;64.20;;;;;;5063050;28;44032;-69
2023/04/22 08:53:33;;;;;;;1.07;1.07;;;18.30;64.30;;;;;;5058338;28;43564;-69
2023/04/22 08:56:03;;;;;;;1.00;1.00;;;18.20;64.10;;;;;;5059280;28;43861;-71
2023/04/22 08:58:31;;;;;;;0.80;0.80;;;18.20;64.10;;;;;;5053283;28;43395;-71
2023/04/22 09:01:00;;;;;;;0.90;0.90;;;18.20;64.30;;;;;;5056853;28;43502;-70
2023/04/22 09:03:28;;;;;;;0.90;0.90;;;18.20;64.40;;;;;;5054476;28;43914;-70
2023/04/22 09:05:56;;;;;;;0.90;0.90;;;18.10;64.50;;;;;;5057073;28;43792;-70
2023/04/22 09:08:24;;;;;;;0.80;0.80;;;18.10;64.40;;;;;;5055727;28;44343;-69
2023/04/22 09:10:52;;;;;;;0.80;0.80;;;18.10;64.40;;;;;;5060819;28;43878;-69
2023/04/22 09:13:21;;;;;;;0.83;0.83;;;18.10;64.50;;;;;;5058434;28;43417;-69
2023/04/22 09:15:49;;;;;;;0.80;0.80;;;18.10;64.50;;;;;;5055794;28;43921;-68
2023/04/22 09:18:17;;;;;;;0.97;0.97;;;18.10;64.60;;;;;;5054193;28;43495;-69
2023/04/22 09:20:46;;;;;;;0.90;0.90;;;18.10;64.70;;;;;;5060620;28;43469;-69
2023/04/22 09:23:14;;;;;;;0.90;0.90;;;18.20;64.60;;;;;;5064172;28;43758;-70
2023/04/22 09:25:42;;;;;;;1.23;0.90;;;18.30;64.30;;;;;;5062289;28;45043;-69
2023/04/22 09:28:11;;;;;;;1.10;1.10;;;18.30;64.10;;;;;;5060529;28;44142;-70
2023/04/22 09:30:41;;;;;;;1.40;1.10;;;18.30;63.80;;;;;;5059687;28;43616;-70
2023/04/22 09:33:08;;;;;;;1.43;1.40;;;18.30;63.90;;;;;;5060602;28;43393;-69
2023/04/22 09:35:37;;;;;;;3.30;1.10;;;18.30;64.10;;;;;;5058506;28;45173;-70
2023/04/22 09:38:07;;;;;;;1.40;1.30;;;18.30;64.00;;;;;;5059767;28;43461;-70
2023/04/22 09:40:35;;;;;;;1.60;1.23;;;18.30;64.00;;;;;;5063121;28;43976;-70
2023/04/22 09:43:06;;;;;;;1.20;1.20;;;18.30;64.20;;;;;;5077008;27;44235;-70
2023/04/22 09:45:35;;;;;;;2.77;1.23;;;18.20;64.30;;;;;;5054617;28;45957;-69
2023/04/22 09:48:07;;;;;;;1.77;1.20;;;18.20;64.50;;;;;;5063055;28;44667;-70
2023/04/22 09:50:35;;;;;;;1.13;1.13;;;18.20;64.50;;;;;;5053846;28;43402;-70
2023/04/22 09:53:04;;;;;;;1.50;1.40;;;18.20;64.50;;;;;;5065204;28;43558;-70
2023/04/22 09:55:33;;;;;;;1.23;1.20;;;18.20;64.70;;;;;;5054748;28;43935;-70
2023/04/22 09:58:05;;;;;;;1.67;1.57;;;18.20;64.70;;;;;;5060576;28;44697;-70
2023/04/22 10:00:34;;;;;;;1.50;1.50;;;18.10;64.80;;;;;;5052644;28;43326;-69
2023/04/22 10:03:04;;;;;;;1.23;1.20;;;18.10;64.70;;;;;;5053731;28;43895;-70
2023/04/22 10:05:36;;;;;;;1.70;1.60;;;18.10;64.70;;;;;;5052752;28;43615;-69
2023/04/22 10:08:05;;;;;;;1.70;1.70;;;18.20;64.40;;;;;;5052103;28;43466;-69
2023/04/22 10:10:33;;;;;;;1.73;1.63;;;18.30;64.20;;;;;;5068382;28;43826;-69
2023/04/22 10:13:01;;;;;;;1.20;1.20;;;18.30;64.90;;;;;;5056241;28;43456;-70
2023/04/22 10:15:31;;;;;;;1.43;1.33;;;18.30;64.30;;;;;;5065675;28;43606;-69
2023/04/22 10:17:59;;;;;;;1.30;1.20;;;18.30;64.30;;;;;;5054119;28;43970;-70
2023/04/22 10:20:29;;;;;;;1.50;1.40;;;18.30;64.40;;;;;;5084273;27;43776;-70
2023/04/22 10:22:57;;;;;;;1.33;1.27;;;18.20;64.30;;;;;;5060479;28;43959;-70
2023/04/22 10:25:25;;;;;;;1.60;1.23;;;18.20;64.30;;;;;;5061510;28;43918;-70
2023/04/22 10:27:54;;;;;;;1.40;1.40;;;18.20;64.50;;;;;;5061525;28;44028;-70
2023/04/22 10:30:28;;;;;;;1.50;1.40;;;18.20;64.60;;;;;;5060858;28;44269;-69
2023/04/22 10:32:56;;;;;;;1.63;1.50;;;18.20;64.60;;;;;;5054626;28;43462;-70
2023/04/22 10:35:29;;;;;;;1.67;1.57;;;18.20;64.60;;;;;;5066794;28;43677;-69
2023/04/22 10:37:57;;;;;;;1.60;1.50;;;18.20;64.60;;;;;;5053849;28;44089;-70
2023/04/22 10:40:25;;;;;;;1.20;1.20;;;18.20;64.70;;;;;;5053128;28;43367;-69
2023/04/22 10:42:54;;;;;;;1.50;1.50;;;18.20;64.80;;;;;;5059085;28;43928;-68
2023/04/22 10:45:25;;;;;;;1.50;1.50;;;18.20;64.80;;;;;;5064268;28;43581;-70
2023/04/22 10:47:53;;;;;;;1.50;1.50;;;18.10;64.70;;;;;;5067394;28;43813;-70
2023/04/22 10:50:22;;;;;;;1.50;1.47;;;18.20;64.60;;;;;;5055166;28;43564;-69
2023/04/22 10:52:54;;;;;;;1.30;1.30;;;18.30;64.40;;;;;;5054351;28;43988;-70
2023/04/22 10:55:22;;;;;;;1.50;1.40;;;18.40;64.10;;;;;;5054594;28;44535;-70
2023/04/22 10:57:51;;;;;;;1.63;1.53;;;18.40;64.00;;;;;;5055897;28;43445;-70
2023/04/22 11:00:27;;;;;;;1.60;1.50;;;18.40;64.10;;;;;;5053280;28;43389;-70
2023/04/22 11:03:16;;;;;;;1.30;1.30;;;18.40;64.30;;;;;;5062066;28;44040;-70
2023/04/22 11:05:44;;;;;;;1.70;1.60;;;18.40;64.20;;;;;;5053512;28;43857;-70
2023/04/22 11:08:16;;;;;;;1.30;1.30;;;18.30;64.20;;;;;;5052747;28;43484;-70
2023/04/22 11:10:45;;;;;;;1.40;1.40;;;18.30;64.30;;;;;;5055854;28;43378;-70
2023/04/22 11:13:14;;;;;;;1.80;1.70;;;18.30;64.40;;;;;;5063328;27;43629;-70
2023/04/22 11:15:43;;;;;;;1.60;1.50;;;18.20;64.60;;;;;;5053797;28;44368;-70
2023/04/22 11:18:21;;;;;;;1.80;1.70;;;18.20;64.50;;;;;;5052214;28;43498;-69
2023/04/22 11:20:50;;;;;;;1.60;1.60;;;18.20;64.50;;;;;;5054589;28;43449;-69
2023/04/22 11:23:21;;;;;;;1.50;1.50;;;18.20;64.50;;;;;;5054512;28;43371;-70
2023/04/22 11:25:54;;;;;;;1.80;1.70;;;18.20;64.60;;;;;;5056629;28;43929;-70
2023/04/22 11:28:22;;;;;;;1.77;1.67;;;18.20;64.70;;;;;;5054193;28;43324;-70
2023/04/22 11:30:52;;;;;;;1.87;1.80;;;18.10;64.80;;;;;;5051111;28;43988;-70
2023/04/22 11:33:20;;;;;;;1.70;1.60;;;18.20;64.80;;;;;;5053091;28;43976;-70
2023/04/22 11:35:49;;;;;;;1.83;1.73;;;18.30;64.60;;;;;;5062757;28;45856;-69
2023/04/22 11:38:21;;;;;;;1.90;1.80;;;18.30;64.30;;;;;;5054405;28;45886;-69
2023/04/22 11:40:49;;;;;;;1.70;1.70;;;18.40;64.20;;;;;;5055298;28;43475;-69
2023/04/22 11:43:19;;;;;;;1.80;1.70;;;18.40;64.20;;;;;;5050938;28;43502;-70
2023/04/22 11:45:48;;;;;;;1.53;1.53;;;18.30;64.40;;;;;;5053592;28;43914;-69
2023/04/22 11:48:16;;;;;;;1.97;1.87;;;18.30;64.40;;;;;;5053875;28;44878;-69
2023/04/22 11:50:44;;;;;;;1.40;1.40;;;18.30;64.30;;;;;;5054380;28;43412;-70
2023/04/22 11:53:16;;;;;;;1.80;1.70;;;18.30;64.30;;;;;;5054423;28;43482;-70
2023/04/22 11:55:46;;;;;;;1.80;1.70;;;18.20;64.40;;;;;;5051526;28;43960;-70
2023/04/22 11:58:15;;;;;;;1.40;1.40;;;18.20;64.50;;;;;;5054673;28;43372;-69
2023/04/22 12:00:45;;;;;;;1.60;1.60;;;18.20;64.80;;;;;;5054206;28;43962;-69
2023/04/22 12:03:14;;;;;;;1.50;1.50;;;18.20;64.70;;;;;;5050940;28;43538;-70
2023/04/22 12:05:43;;;;;;;1.47;1.47;;;18.20;64.70;;;;;;5057233;28;43861;-70
2023/04/22 12:08:15;;;;;;;1.30;1.30;;;18.20;64.70;;;;;;5057824;28;43482;-69
2023/04/22 12:10:45;;;;;;;1.40;1.40;;;18.10;64.70;;;;;;5059315;28;43436;-70
2023/04/22 12:13:20;;;;;;;1.80;1.70;;;18.10;64.80;;;;;;5059022;28;43498;-70
2023/04/22 12:15:48;;;;;;;1.60;1.50;;;18.10;64.90;;;;;;5058012;28;43617;-69
2023/04/22 12:18:16;;;;;;;1.50;1.50;;;18.20;64.80;;;;;;5059835;28;44958;-70
2023/04/22 12:20:44;;;;;;;1.67;1.67;;;18.20;65.50;;;;;;5058904;28;43484;-70
2023/04/22 12:23:14;;;;;;;1.30;1.30;;;18.10;64.80;;;;;;5060843;28;43534;-70
2023/04/22 12:25:42;;;;;;;1.60;1.50;;;18.10;64.80;;;;;;5055629;28;45915;-70
2023/04/22 12:28:13;;;;;;;1.67;1.60;;;18.10;64.90;;;;;;5058428;28;43561;-69
2023/04/22 12:30:41;;;;;;;1.90;1.80;;;18.10;65.00;;;;;;5059813;28;43411;-70
2023/04/22 12:33:09;;;;;;;1.60;1.60;;;18.20;64.80;;;;;;5058676;28;43412;-69
2023/04/22 12:35:37;;;;;;;1.70;1.70;;;18.30;64.40;;;;;;5058900;28;43921;-70
2023/04/22 12:38:05;;;;;;;1.50;1.50;;;18.40;64.20;;;;;;5059636;28;44525;-70
2023/04/22 12:40:33;;;;;;;1.37;1.37;;;18.40;64.00;;;;;;5057232;28;43402;-70
2023/04/22 12:43:04;;;;;;;1.53;1.53;;;18.40;63.90;;;;;;5055648;28;43547;-71
2023/04/22 12:45:35;;;;;;;1.47;1.47;;;18.40;64.20;;;;;;5057025;28;44230;-70
2023/04/22 12:48:04;;;;;;;1.37;1.37;;;18.40;64.20;;;;;;5057302;28;43462;-70
2023/04/22 12:50:32;;;;;;;1.77;1.77;;;18.40;64.10;;;;;;5061687;28;43374;-71
2023/04/22 12:53:00;;;;;;;1.20;1.20;;;18.40;64.20;;;;;;5052976;28;43489;-69
2023/04/22 12:55:28;;;;;;;1.40;1.40;;;18.30;64.30;;;;;;5057180;28;43911;-70
2023/04/22 12:57:55;;;;;;;1.47;1.47;;;18.30;64.40;;;;;;5054954;28;43897;-69
2023/04/22 13:00:24;;;;;;;1.47;1.47;;;18.20;64.60;;;;;;5054392;28;43509;-69